Jonesboro, Louisiana
Current Conditions -  °F | °C
As of 10:15 PM on Tuesday 21 Oct 2014 (Local Time) from KRSN Reporting Station
Haze Haze  
Wind Chill: 60°   Ceiling: Unl
Heat Index: 60°   Visibility: 5mi
Dew Point: 60°   Wind: 0mph
Humidity: 100%   Direction: NA
Pressure: 30.11"   Gusts: NA
Location:  32.24°N, 92.72°W
Report Text: KRSN 220315Z AUTO 00000KT 5SM BR SCT045 16/16 A3011 RMK AO2 T01570157
Loading
Personal Weather Stations






























Interactive Weather Map
Tropical Storm Tracking
New forecast layout! Learn more

10-Day Weather Forecast

Advertisements
Track Severe Weather on mobile